sensor_id;sensor_type;location;lat;lon;timestamp;P1;durP1;ratioP1;P2;durP2;ratioP2
58928;SDS011;44713;53.378;10.022;2022-07-22T00:02:06;24.50;;;18.05;;
58928;SDS011;44713;53.378;10.022;2022-07-22T00:04:31;27.20;;;19.55;;
58928;SDS011;44713;53.378;10.022;2022-07-22T00:06:57;16.90;;;13.13;;
58928;SDS011;44713;53.378;10.022;2022-07-22T00:09:22;24.52;;;20.15;;
58928;SDS011;44713;53.378;10.022;2022-07-22T00:11:48;27.95;;;20.13;;
58928;SDS011;44713;53.378;10.022;2022-07-22T00:14:13;16.90;;;15.18;;
58928;SDS011;44713;53.378;10.022;2022-07-22T00:16:39;24.38;;;19.30;;
58928;SDS011;44713;53.378;10.022;2022-07-22T00:19:04;26.50;;;19.17;;
58928;SDS011;44713;53.378;10.022;2022-07-22T00:21:29;22.85;;;19.38;;
58928;SDS011;44713;53.378;10.022;2022-07-22T00:23:55;20.92;;;16.83;;
58928;SDS011;44713;53.378;10.022;2022-07-22T00:26:20;26.10;;;20.55;;
58928;SDS011;44713;53.378;10.022;2022-07-22T00:28:45;28.73;;;21.95;;
58928;SDS011;44713;53.378;10.022;2022-07-22T00:31:11;33.00;;;24.92;;
58928;SDS011;44713;53.378;10.022;2022-07-22T00:33:36;28.55;;;21.80;;
58928;SDS011;44713;53.378;10.022;2022-07-22T00:36:01;31.88;;;24.60;;
58928;SDS011;44713;53.378;10.022;2022-07-22T00:38:27;28.25;;;22.55;;
58928;SDS011;44713;53.378;10.022;2022-07-22T00:40:52;30.65;;;24.90;;
58928;SDS011;44713;53.378;10.022;2022-07-22T00:43:18;31.73;;;23.63;;
58928;SDS011;44713;53.378;10.022;2022-07-22T00:45:44;26.60;;;20.60;;
58928;SDS011;44713;53.378;10.022;2022-07-22T00:48:09;13.90;;;11.30;;
58928;SDS011;44713;53.378;10.022;2022-07-22T00:50:34;11.40;;;10.27;;
58928;SDS011;44713;53.378;10.022;2022-07-22T00:53:00;10.23;;;7.15;;
58928;SDS011;44713;53.378;10.022;2022-07-22T00:55:26;5.65;;;3.60;;
58928;SDS011;44713;53.378;10.022;2022-07-22T00:57:52;4.93;;;2.92;;
58928;SDS011;44713;53.378;10.022;2022-07-22T01:00:19;7.43;;;2.80;;
58928;SDS011;44713;53.378;10.022;2022-07-22T01:02:45;2.88;;;2.30;;
58928;SDS011;44713;53.378;10.022;2022-07-22T01:05:11;3.08;;;1.80;;
58928;SDS011;44713;53.378;10.022;2022-07-22T01:07:37;2.38;;;1.55;;
58928;SDS011;44713;53.378;10.022;2022-07-22T01:10:04;3.30;;;1.50;;
58928;SDS011;44713;53.378;10.022;2022-07-22T01:12:31;5.10;;;1.40;;
58928;SDS011;44713;53.378;10.022;2022-07-22T01:14:56;1.95;;;1.50;;
58928;SDS011;44713;53.378;10.022;2022-07-22T01:17:21;5.22;;;1.10;;
58928;SDS011;44713;53.378;10.022;2022-07-22T01:19:47;1.40;;;1.30;;
58928;SDS011;44713;53.378;10.022;2022-07-22T01:22:12;6.18;;;1.10;;
58928;SDS011;44713;53.378;10.022;2022-07-22T01:24:38;3.03;;;1.00;;
58928;SDS011;44713;53.378;10.022;2022-07-22T01:27:04;1.20;;;0.90;;
58928;SDS011;44713;53.378;10.022;2022-07-22T01:29:29;2.88;;;0.93;;
58928;SDS011;44713;53.378;10.022;2022-07-22T01:31:55;1.65;;;0.80;;
58928;SDS011;44713;53.378;10.022;2022-07-22T01:34:21;1.40;;;0.80;;
58928;SDS011;44713;53.378;10.022;2022-07-22T01:36:47;3.03;;;0.70;;
58928;SDS011;44713;53.378;10.022;2022-07-22T01:39:12;1.02;;;0.70;;
58928;SDS011;44713;53.378;10.022;2022-07-22T01:41:39;2.67;;;0.77;;
58928;SDS011;44713;53.378;10.022;2022-07-22T01:44:08;2.88;;;0.63;;
58928;SDS011;44713;53.378;10.022;2022-07-22T01:46:33;1.55;;;0.70;;
58928;SDS011;44713;53.378;10.022;2022-07-22T01:48:59;3.58;;;0.80;;
58928;SDS011;44713;53.378;10.022;2022-07-22T01:51:28;3.28;;;0.80;;
58928;SDS011;44713;53.378;10.022;2022-07-22T01:53:53;1.70;;;0.98;;
58928;SDS011;44713;53.378;10.022;2022-07-22T01:56:19;1.88;;;1.17;;
58928;SDS011;44713;53.378;10.022;2022-07-22T01:58:48;3.90;;;1.35;;
58928;SDS011;44713;53.378;10.022;2022-07-22T02:01:15;5.13;;;1.52;;
58928;SDS011;44713;53.378;10.022;2022-07-22T02:03:41;3.35;;;2.20;;
58928;SDS011;44713;53.378;10.022;2022-07-22T02:06:07;4.50;;;2.03;;
58928;SDS011;44713;53.378;10.022;2022-07-22T02:08:34;5.47;;;2.53;;
58928;SDS011;44713;53.378;10.022;2022-07-22T02:11:25;6.03;;;2.53;;
58928;SDS011;44713;53.378;10.022;2022-07-22T02:13:54;3.35;;;2.42;;
58928;SDS011;44713;53.378;10.022;2022-07-22T02:16:20;4.82;;;3.20;;
58928;SDS011;44713;53.378;10.022;2022-07-22T02:18:47;4.40;;;3.15;;
58928;SDS011;44713;53.378;10.022;2022-07-22T02:21:12;5.72;;;4.70;;
58928;SDS011;44713;53.378;10.022;2022-07-22T02:23:38;5.78;;;4.10;;
58928;SDS011;44713;53.378;10.022;2022-07-22T02:26:03;8.30;;;4.97;;
58928;SDS011;44713;53.378;10.022;2022-07-22T02:28:29;7.97;;;3.78;;
58928;SDS011;44713;53.378;10.022;2022-07-22T02:30:54;9.07;;;4.07;;
58928;SDS011;44713;53.378;10.022;2022-07-22T02:33:20;8.82;;;3.72;;
58928;SDS011;44713;53.378;10.022;2022-07-22T02:35:45;8.00;;;3.03;;
58928;SDS011;44713;53.378;10.022;2022-07-22T02:38:11;6.18;;;3.03;;
58928;SDS011;44713;53.378;10.022;2022-07-22T02:40:38;7.95;;;2.78;;
58928;SDS011;44713;53.378;10.022;2022-07-22T02:43:03;6.05;;;2.25;;
58928;SDS011;44713;53.378;10.022;2022-07-22T02:45:31;4.28;;;2.10;;
58928;SDS011;44713;53.378;10.022;2022-07-22T02:47:58;5.25;;;2.03;;
58928;SDS011;44713;53.378;10.022;2022-07-22T02:50:24;7.07;;;2.28;;
58928;SDS011;44713;53.378;10.022;2022-07-22T02:52:50;5.65;;;2.05;;
58928;SDS011;44713;53.378;10.022;2022-07-22T02:55:18;6.70;;;1.90;;
58928;SDS011;44713;53.378;10.022;2022-07-22T02:57:44;5.82;;;1.90;;
58928;SDS011;44713;53.378;10.022;2022-07-22T03:00:10;4.65;;;1.42;;
58928;SDS011;44713;53.378;10.022;2022-07-22T03:02:39;9.23;;;1.80;;
58928;SDS011;44713;53.378;10.022;2022-07-22T03:05:05;4.05;;;1.88;;
58928;SDS011;44713;53.378;10.022;2022-07-22T03:07:33;9.98;;;2.13;;
58928;SDS011;44713;53.378;10.022;2022-07-22T03:10:00;6.07;;;1.88;;
58928;SDS011;44713;53.378;10.022;2022-07-22T03:12:26;4.90;;;2.00;;
58928;SDS011;44713;53.378;10.022;2022-07-22T03:14:52;5.68;;;1.85;;
58928;SDS011;44713;53.378;10.022;2022-07-22T03:17:18;8.73;;;2.10;;
58928;SDS011;44713;53.378;10.022;2022-07-22T03:19:44;5.10;;;2.10;;
58928;SDS011;44713;53.378;10.022;2022-07-22T03:22:09;6.88;;;2.05;;
58928;SDS011;44713;53.378;10.022;2022-07-22T03:24:34;4.70;;;1.70;;
58928;SDS011;44713;53.378;10.022;2022-07-22T03:27:00;9.50;;;2.00;;
58928;SDS011;44713;53.378;10.022;2022-07-22T03:29:28;4.25;;;1.80;;
58928;SDS011;44713;53.378;10.022;2022-07-22T03:31:53;6.95;;;2.20;;
58928;SDS011;44713;53.378;10.022;2022-07-22T03:34:32;3.78;;;1.42;;
58928;SDS011;44713;53.378;10.022;2022-07-22T03:37:04;7.40;;;1.80;;
58928;SDS011;44713;53.378;10.022;2022-07-22T03:39:29;4.93;;;1.70;;
58928;SDS011;44713;53.378;10.022;2022-07-22T03:41:55;3.97;;;1.50;;
58928;SDS011;44713;53.378;10.022;2022-07-22T03:44:20;8.70;;;2.20;;
58928;SDS011;44713;53.378;10.022;2022-07-22T03:46:45;5.40;;;1.50;;
58928;SDS011;44713;53.378;10.022;2022-07-22T03:49:13;6.93;;;2.22;;
58928;SDS011;44713;53.378;10.022;2022-07-22T03:51:39;7.10;;;2.38;;
58928;SDS011;44713;53.378;10.022;2022-07-22T03:54:05;8.02;;;2.00;;
58928;SDS011;44713;53.378;10.022;2022-07-22T03:56:31;6.15;;;2.40;;
58928;SDS011;44713;53.378;10.022;2022-07-22T03:58:56;7.05;;;1.77;;
58928;SDS011;44713;53.378;10.022;2022-07-22T04:01:21;7.63;;;2.00;;
58928;SDS011;44713;53.378;10.022;2022-07-22T04:03:47;5.38;;;2.13;;
58928;SDS011;44713;53.378;10.022;2022-07-22T04:06:26;6.15;;;1.98;;
58928;SDS011;44713;53.378;10.022;2022-07-22T04:09:04;6.22;;;2.22;;
58928;SDS011;44713;53.378;10.022;2022-07-22T04:11:31;5.60;;;2.42;;
58928;SDS011;44713;53.378;10.022;2022-07-22T04:13:56;7.03;;;2.90;;
58928;SDS011;44713;53.378;10.022;2022-07-22T04:16:21;5.35;;;2.35;;
58928;SDS011;44713;53.378;10.022;2022-07-22T04:18:58;6.47;;;2.50;;
58928;SDS011;44713;53.378;10.022;2022-07-22T04:21:38;7.35;;;2.72;;
58928;SDS011;44713;53.378;10.022;2022-07-22T04:24:08;8.27;;;3.67;;
58928;SDS011;44713;53.378;10.022;2022-07-22T04:26:33;8.82;;;3.05;;
58928;SDS011;44713;53.378;10.022;2022-07-22T04:28:59;11.60;;;3.08;;
58928;SDS011;44713;53.378;10.022;2022-07-22T04:31:24;6.80;;;2.90;;
58928;SDS011;44713;53.378;10.022;2022-07-22T04:33:57;11.02;;;2.75;;
58928;SDS011;44713;53.378;10.022;2022-07-22T04:36:23;10.25;;;2.90;;
58928;SDS011;44713;53.378;10.022;2022-07-22T04:38:52;7.10;;;2.60;;
58928;SDS011;44713;53.378;10.022;2022-07-22T04:41:18;7.00;;;2.53;;
58928;SDS011;44713;53.378;10.022;2022-07-22T04:43:43;7.85;;;2.70;;
58928;SDS011;44713;53.378;10.022;2022-07-22T04:46:09;10.77;;;2.83;;
58928;SDS011;44713;53.378;10.022;2022-07-22T04:48:38;9.73;;;2.58;;
58928;SDS011;44713;53.378;10.022;2022-07-22T04:51:04;8.18;;;2.65;;
58928;SDS011;44713;53.378;10.022;2022-07-22T04:53:32;8.82;;;2.40;;
58928;SDS011;44713;53.378;10.022;2022-07-22T04:55:58;11.07;;;2.33;;
58928;SDS011;44713;53.378;10.022;2022-07-22T04:58:24;5.97;;;2.40;;
58928;SDS011;44713;53.378;10.022;2022-07-22T05:00:49;7.65;;;2.30;;
58928;SDS011;44713;53.378;10.022;2022-07-22T05:03:15;7.00;;;2.15;;
58928;SDS011;44713;53.378;10.022;2022-07-22T05:05:41;4.43;;;2.13;;
58928;SDS011;44713;53.378;10.022;2022-07-22T05:08:07;5.07;;;1.83;;
58928;SDS011;44713;53.378;10.022;2022-07-22T05:10:33;7.78;;;1.90;;
58928;SDS011;44713;53.378;10.022;2022-07-22T05:12:59;9.70;;;2.30;;
58928;SDS011;44713;53.378;10.022;2022-07-22T05:15:25;13.27;;;2.40;;
58928;SDS011;44713;53.378;10.022;2022-07-22T05:17:50;9.95;;;1.88;;
58928;SDS011;44713;53.378;10.022;2022-07-22T05:20:20;5.43;;;2.20;;
58928;SDS011;44713;53.378;10.022;2022-07-22T05:22:46;6.03;;;2.03;;
58928;SDS011;44713;53.378;10.022;2022-07-22T05:25:16;5.05;;;2.00;;
58928;SDS011;44713;53.378;10.022;2022-07-22T05:27:52;6.80;;;1.65;;
58928;SDS011;44713;53.378;10.022;2022-07-22T05:30:23;6.75;;;1.67;;
58928;SDS011;44713;53.378;10.022;2022-07-22T05:32:49;7.70;;;2.15;;
58928;SDS011;44713;53.378;10.022;2022-07-22T05:35:20;5.07;;;2.00;;
58928;SDS011;44713;53.378;10.022;2022-07-22T05:37:46;6.47;;;2.20;;
58928;SDS011;44713;53.378;10.022;2022-07-22T05:40:12;8.43;;;2.25;;
58928;SDS011;44713;53.378;10.022;2022-07-22T05:42:38;7.85;;;2.70;;
58928;SDS011;44713;53.378;10.022;2022-07-22T05:45:03;7.85;;;2.30;;
58928;SDS011;44713;53.378;10.022;2022-07-22T05:47:29;8.38;;;2.35;;
58928;SDS011;44713;53.378;10.022;2022-07-22T05:49:55;10.80;;;2.45;;
58928;SDS011;44713;53.378;10.022;2022-07-22T05:52:20;8.32;;;2.28;;
58928;SDS011;44713;53.378;10.022;2022-07-22T05:54:46;8.05;;;2.33;;
58928;SDS011;44713;53.378;10.022;2022-07-22T05:57:11;13.23;;;2.58;;
58928;SDS011;44713;53.378;10.022;2022-07-22T05:59:38;9.57;;;2.10;;
58928;SDS011;44713;53.378;10.022;2022-07-22T06:02:03;8.63;;;2.60;;
58928;SDS011;44713;53.378;10.022;2022-07-22T06:04:39;11.15;;;2.58;;
58928;SDS011;44713;53.378;10.022;2022-07-22T06:07:05;10.00;;;2.58;;
58928;SDS011;44713;53.378;10.022;2022-07-22T06:09:31;11.10;;;2.72;;
58928;SDS011;44713;53.378;10.022;2022-07-22T06:11:57;12.25;;;3.00;;
58928;SDS011;44713;53.378;10.022;2022-07-22T06:14:22;7.50;;;2.35;;
58928;SDS011;44713;53.378;10.022;2022-07-22T06:16:48;11.57;;;2.75;;
58928;SDS011;44713;53.378;10.022;2022-07-22T06:19:13;12.80;;;2.42;;
58928;SDS011;44713;53.378;10.022;2022-07-22T06:21:39;9.60;;;2.38;;
58928;SDS011;44713;53.378;10.022;2022-07-22T06:24:10;9.95;;;2.15;;
58928;SDS011;44713;53.378;10.022;2022-07-22T06:26:35;11.23;;;2.20;;
58928;SDS011;44713;53.378;10.022;2022-07-22T06:29:01;10.45;;;2.42;;
58928;SDS011;44713;53.378;10.022;2022-07-22T06:31:26;10.38;;;2.63;;
58928;SDS011;44713;53.378;10.022;2022-07-22T06:33:51;13.50;;;2.63;;
58928;SDS011;44713;53.378;10.022;2022-07-22T06:36:17;12.45;;;2.45;;
58928;SDS011;44713;53.378;10.022;2022-07-22T06:38:43;10.50;;;2.88;;
58928;SDS011;44713;53.378;10.022;2022-07-22T06:41:27;9.63;;;2.17;;
58928;SDS011;44713;53.378;10.022;2022-07-22T06:44:02;8.80;;;2.83;;
58928;SDS011;44713;53.378;10.022;2022-07-22T06:46:32;10.68;;;2.40;;
58928;SDS011;44713;53.378;10.022;2022-07-22T06:48:58;12.57;;;2.90;;
58928;SDS011;44713;53.378;10.022;2022-07-22T06:51:24;10.40;;;2.78;;
58928;SDS011;44713;53.378;10.022;2022-07-22T06:53:49;12.85;;;2.33;;
58928;SDS011;44713;53.378;10.022;2022-07-22T06:56:15;12.15;;;2.53;;
58928;SDS011;44713;53.378;10.022;2022-07-22T06:58:40;10.25;;;2.30;;
58928;SDS011;44713;53.378;10.022;2022-07-22T07:01:09;15.45;;;2.78;;
58928;SDS011;44713;53.378;10.022;2022-07-22T07:03:42;14.77;;;2.78;;
58928;SDS011;44713;53.378;10.022;2022-07-22T07:06:09;8.93;;;2.50;;
58928;SDS011;44713;53.378;10.022;2022-07-22T07:08:54;11.23;;;2.28;;
58928;SDS011;44713;53.378;10.022;2022-07-22T07:11:19;14.02;;;3.00;;
58928;SDS011;44713;53.378;10.022;2022-07-22T07:13:45;8.73;;;2.50;;
58928;SDS011;44713;53.378;10.022;2022-07-22T07:16:10;12.82;;;2.38;;
58928;SDS011;44713;53.378;10.022;2022-07-22T07:18:36;10.50;;;2.65;;
58928;SDS011;44713;53.378;10.022;2022-07-22T07:21:03;13.73;;;2.17;;
58928;SDS011;44713;53.378;10.022;2022-07-22T07:23:29;13.73;;;2.60;;
58928;SDS011;44713;53.378;10.022;2022-07-22T07:25:55;15.85;;;3.05;;
58928;SDS011;44713;53.378;10.022;2022-07-22T07:28:20;8.80;;;2.45;;
58928;SDS011;44713;53.378;10.022;2022-07-22T07:30:52;8.43;;;2.33;;
58928;SDS011;44713;53.378;10.022;2022-07-22T07:33:19;15.88;;;2.55;;
58928;SDS011;44713;53.378;10.022;2022-07-22T07:35:45;7.65;;;2.15;;
58928;SDS011;44713;53.378;10.022;2022-07-22T07:38:12;13.68;;;2.25;;
58928;SDS011;44713;53.378;10.022;2022-07-22T07:40:39;17.30;;;2.58;;
58928;SDS011;44713;53.378;10.022;2022-07-22T07:43:05;14.35;;;2.50;;
58928;SDS011;44713;53.378;10.022;2022-07-22T07:45:32;12.30;;;2.75;;
58928;SDS011;44713;53.378;10.022;2022-07-22T07:47:58;17.08;;;2.35;;
58928;SDS011;44713;53.378;10.022;2022-07-22T07:50:23;9.40;;;2.15;;
58928;SDS011;44713;53.378;10.022;2022-07-22T07:52:51;13.90;;;2.55;;
58928;SDS011;44713;53.378;10.022;2022-07-22T07:55:16;12.95;;;2.58;;
58928;SDS011;44713;53.378;10.022;2022-07-22T07:57:43;11.07;;;2.85;;
58928;SDS011;44713;53.378;10.022;2022-07-22T08:00:12;11.88;;;2.22;;
58928;SDS011;44713;53.378;10.022;2022-07-22T08:02:42;8.50;;;2.20;;
58928;SDS011;44713;53.378;10.022;2022-07-22T08:05:09;11.57;;;2.20;;
58928;SDS011;44713;53.378;10.022;2022-07-22T08:07:36;9.05;;;2.10;;
58928;SDS011;44713;53.378;10.022;2022-07-22T08:10:04;11.52;;;2.33;;
58928;SDS011;44713;53.378;10.022;2022-07-22T08:13:02;12.52;;;2.70;;
58928;SDS011;44713;53.378;10.022;2022-07-22T08:15:47;6.95;;;1.83;;
58928;SDS011;44713;53.378;10.022;2022-07-22T08:18:19;6.63;;;2.13;;
58928;SDS011;44713;53.378;10.022;2022-07-22T08:20:44;9.38;;;2.33;;
58928;SDS011;44713;53.378;10.022;2022-07-22T08:23:11;10.52;;;2.08;;
58928;SDS011;44713;53.378;10.022;2022-07-22T08:25:38;8.30;;;2.13;;
58928;SDS011;44713;53.378;10.022;2022-07-22T08:28:04;10.77;;;2.38;;
58928;SDS011;44713;53.378;10.022;2022-07-22T08:30:30;16.15;;;2.58;;
58928;SDS011;44713;53.378;10.022;2022-07-22T08:32:56;7.68;;;2.50;;
58928;SDS011;44713;53.378;10.022;2022-07-22T08:35:23;7.72;;;2.03;;
58928;SDS011;44713;53.378;10.022;2022-07-22T08:37:49;9.50;;;1.90;;
58928;SDS011;44713;53.378;10.022;2022-07-22T08:40:15;7.70;;;1.90;;
58928;SDS011;44713;53.378;10.022;2022-07-22T08:42:42;10.95;;;2.55;;
58928;SDS011;44713;53.378;10.022;2022-07-22T08:45:09;10.35;;;2.13;;
58928;SDS011;44713;53.378;10.022;2022-07-22T08:47:35;11.43;;;2.05;;
58928;SDS011;44713;53.378;10.022;2022-07-22T08:50:14;13.35;;;2.75;;
58928;SDS011;44713;53.378;10.022;2022-07-22T08:52:50;8.00;;;1.90;;
58928;SDS011;44713;53.378;10.022;2022-07-22T08:55:16;7.53;;;2.05;;
58928;SDS011;44713;53.378;10.022;2022-07-22T08:57:45;7.97;;;2.00;;
58928;SDS011;44713;53.378;10.022;2022-07-22T09:00:12;8.55;;;2.10;;
58928;SDS011;44713;53.378;10.022;2022-07-22T09:02:41;8.60;;;1.95;;
58928;SDS011;44713;53.378;10.022;2022-07-22T09:05:10;11.63;;;2.17;;
58928;SDS011;44713;53.378;10.022;2022-07-22T09:07:39;9.48;;;2.20;;
58928;SDS011;44713;53.378;10.022;2022-07-22T09:10:12;6.20;;;1.88;;
58928;SDS011;44713;53.378;10.022;2022-07-22T09:12:59;8.90;;;1.90;;
58928;SDS011;44713;53.378;10.022;2022-07-22T09:15:50;8.98;;;1.88;;
58928;SDS011;44713;53.378;10.022;2022-07-22T09:18:52;7.63;;;2.13;;
58928;SDS011;44713;53.378;10.022;2022-07-22T09:21:29;7.35;;;1.67;;
58928;SDS011;44713;53.378;10.022;2022-07-22T09:24:08;10.05;;;2.10;;
58928;SDS011;44713;53.378;10.022;2022-07-22T09:26:37;5.20;;;1.80;;
58928;SDS011;44713;53.378;10.022;2022-07-22T09:29:26;8.07;;;1.45;;
58928;SDS011;44713;53.378;10.022;2022-07-22T09:32:14;5.43;;;1.75;;
58928;SDS011;44713;53.378;10.022;2022-07-22T09:34:51;12.77;;;2.00;;
58928;SDS011;44713;53.378;10.022;2022-07-22T09:37:26;5.05;;;1.88;;
58928;SDS011;44713;53.378;10.022;2022-07-22T09:39:52;8.15;;;1.63;;
58928;SDS011;44713;53.378;10.022;2022-07-22T09:42:19;7.38;;;1.42;;
58928;SDS011;44713;53.378;10.022;2022-07-22T09:44:45;8.32;;;1.70;;
58928;SDS011;44713;53.378;10.022;2022-07-22T09:47:27;5.82;;;1.45;;
58928;SDS011;44713;53.378;10.022;2022-07-22T09:53:04;9.93;;;1.90;;
58928;SDS011;44713;53.378;10.022;2022-07-22T09:55:30;8.02;;;2.35;;
58928;SDS011;44713;53.378;10.022;2022-07-22T09:57:57;7.10;;;1.63;;
58928;SDS011;44713;53.378;10.022;2022-07-22T10:00:24;7.00;;;1.65;;
58928;SDS011;44713;53.378;10.022;2022-07-22T10:02:56;5.25;;;1.58;;
58928;SDS011;44713;53.378;10.022;2022-07-22T10:05:24;11.07;;;1.75;;
58928;SDS011;44713;53.378;10.022;2022-07-22T10:07:52;9.35;;;1.73;;
58928;SDS011;44713;53.378;10.022;2022-07-22T10:10:20;6.65;;;1.77;;
58928;SDS011;44713;53.378;10.022;2022-07-22T10:12:48;10.63;;;1.75;;
58928;SDS011;44713;53.378;10.022;2022-07-22T10:15:15;5.32;;;1.70;;
58928;SDS011;44713;53.378;10.022;2022-07-22T10:17:43;8.95;;;1.80;;
58928;SDS011;44713;53.378;10.022;2022-07-22T10:20:11;7.05;;;1.77;;
58928;SDS011;44713;53.378;10.022;2022-07-22T10:25:11;7.45;;;1.73;;
58928;SDS011;44713;53.378;10.022;2022-07-22T10:27:46;8.15;;;1.50;;
58928;SDS011;44713;53.378;10.022;2022-07-22T10:30:26;5.55;;;1.40;;
58928;SDS011;44713;53.378;10.022;2022-07-22T10:33:12;6.13;;;1.70;;
58928;SDS011;44713;53.378;10.022;2022-07-22T10:35:58;7.13;;;1.58;;
58928;SDS011;44713;53.378;10.022;2022-07-22T10:38:27;2.28;;;1.05;;
58928;SDS011;44713;53.378;10.022;2022-07-22T10:40:57;5.63;;;1.17;;
58928;SDS011;44713;53.378;10.022;2022-07-22T10:43:25;2.92;;;1.40;;
58928;SDS011;44713;53.378;10.022;2022-07-22T10:46:01;6.32;;;1.42;;
58928;SDS011;44713;53.378;10.022;2022-07-22T10:56:15;5.72;;;1.65;;
58928;SDS011;44713;53.378;10.022;2022-07-22T10:58:44;4.35;;;1.30;;
58928;SDS011;44713;53.378;10.022;2022-07-22T11:01:16;5.40;;;1.38;;
58928;SDS011;44713;53.378;10.022;2022-07-22T11:03:44;6.47;;;1.48;;
58928;SDS011;44713;53.378;10.022;2022-07-22T11:08:39;3.92;;;1.30;;
58928;SDS011;44713;53.378;10.022;2022-07-22T11:11:06;5.75;;;1.20;;
58928;SDS011;44713;53.378;10.022;2022-07-22T11:13:32;6.47;;;1.50;;
58928;SDS011;44713;53.378;10.022;2022-07-22T11:16:14;6.40;;;1.45;;
58928;SDS011;44713;53.378;10.022;2022-07-22T11:21:20;9.15;;;1.67;;
58928;SDS011;44713;53.378;10.022;2022-07-22T11:23:48;7.65;;;1.83;;
58928;SDS011;44713;53.378;10.022;2022-07-22T11:26:16;4.72;;;1.38;;
58928;SDS011;44713;53.378;10.022;2022-07-22T11:28:43;7.90;;;1.35;;
58928;SDS011;44713;53.378;10.022;2022-07-22T11:31:10;5.80;;;1.20;;
58928;SDS011;44713;53.378;10.022;2022-07-22T11:33:38;5.32;;;1.42;;
58928;SDS011;44713;53.378;10.022;2022-07-22T11:36:05;6.80;;;1.33;;
58928;SDS011;44713;53.378;10.022;2022-07-22T11:41:14;6.38;;;1.25;;
58928;SDS011;44713;53.378;10.022;2022-07-22T11:43:45;4.45;;;1.05;;
58928;SDS011;44713;53.378;10.022;2022-07-22T11:46:12;7.28;;;0.88;;
58928;SDS011;44713;53.378;10.022;2022-07-22T11:48:39;4.85;;;1.10;;
58928;SDS011;44713;53.378;10.022;2022-07-22T11:51:07;6.05;;;1.27;;
58928;SDS011;44713;53.378;10.022;2022-07-22T11:53:32;4.50;;;1.20;;
58928;SDS011;44713;53.378;10.022;2022-07-22T11:56:02;7.55;;;1.40;;
58928;SDS011;44713;53.378;10.022;2022-07-22T11:58:39;4.63;;;1.10;;
58928;SDS011;44713;53.378;10.022;2022-07-22T12:01:09;2.92;;;1.00;;
58928;SDS011;44713;53.378;10.022;2022-07-22T12:03:36;4.68;;;0.90;;
58928;SDS011;44713;53.378;10.022;2022-07-22T12:06:04;6.28;;;1.25;;
58928;SDS011;44713;53.378;10.022;2022-07-22T12:08:33;9.23;;;1.23;;
58928;SDS011;44713;53.378;10.022;2022-07-22T12:11:00;3.58;;;0.82;;
58928;SDS011;44713;53.378;10.022;2022-07-22T12:13:29;3.15;;;0.80;;
58928;SDS011;44713;53.378;10.022;2022-07-22T12:15:56;4.63;;;0.93;;
58928;SDS011;44713;53.378;10.022;2022-07-22T12:18:23;4.90;;;1.20;;
58928;SDS011;44713;53.378;10.022;2022-07-22T12:20:51;5.15;;;1.17;;
58928;SDS011;44713;53.378;10.022;2022-07-22T12:23:17;4.72;;;1.20;;
58928;SDS011;44713;53.378;10.022;2022-07-22T12:25:50;4.05;;;1.20;;
58928;SDS011;44713;53.378;10.022;2022-07-22T12:28:16;5.10;;;1.30;;
58928;SDS011;44713;53.378;10.022;2022-07-22T12:30:42;5.18;;;1.30;;
58928;SDS011;44713;53.378;10.022;2022-07-22T12:33:17;2.90;;;1.00;;
58928;SDS011;44713;53.378;10.022;2022-07-22T12:35:43;6.85;;;1.40;;
58928;SDS011;44713;53.378;10.022;2022-07-22T12:38:10;5.18;;;1.10;;
58928;SDS011;44713;53.378;10.022;2022-07-22T12:40:36;5.28;;;1.20;;
58928;SDS011;44713;53.378;10.022;2022-07-22T12:43:07;6.25;;;1.38;;
58928;SDS011;44713;53.378;10.022;2022-07-22T12:45:34;5.53;;;1.00;;
58928;SDS011;44713;53.378;10.022;2022-07-22T12:50:35;7.55;;;1.10;;
58928;SDS011;44713;53.378;10.022;2022-07-22T12:53:12;1.73;;;0.90;;
58928;SDS011;44713;53.378;10.022;2022-07-22T12:55:42;10.37;;;1.40;;
58928;SDS011;44713;53.378;10.022;2022-07-22T12:58:09;7.53;;;1.20;;
58928;SDS011;44713;53.378;10.022;2022-07-22T13:00:36;3.30;;;1.05;;
58928;SDS011;44713;53.378;10.022;2022-07-22T13:03:06;4.57;;;1.00;;
58928;SDS011;44713;53.378;10.022;2022-07-22T13:05:31;5.18;;;1.08;;
58928;SDS011;44713;53.378;10.022;2022-07-22T13:07:57;3.50;;;1.08;;
58928;SDS011;44713;53.378;10.022;2022-07-22T13:10:23;6.78;;;1.02;;
58928;SDS011;44713;53.378;10.022;2022-07-22T13:12:50;8.27;;;1.20;;
58928;SDS011;44713;53.378;10.022;2022-07-22T13:15:16;5.47;;;1.05;;
58928;SDS011;44713;53.378;10.022;2022-07-22T13:17:41;7.75;;;1.13;;
58928;SDS011;44713;53.378;10.022;2022-07-22T13:20:08;1.40;;;0.75;;
58928;SDS011;44713;53.378;10.022;2022-07-22T13:22:34;6.95;;;1.05;;
58928;SDS011;44713;53.378;10.022;2022-07-22T13:25:00;4.05;;;1.23;;
58928;SDS011;44713;53.378;10.022;2022-07-22T13:27:25;7.28;;;1.40;;
58928;SDS011;44713;53.378;10.022;2022-07-22T13:29:51;5.65;;;1.27;;
58928;SDS011;44713;53.378;10.022;2022-07-22T13:32:17;4.30;;;1.55;;
58928;SDS011;44713;53.378;10.022;2022-07-22T13:34:42;5.90;;;1.27;;
58928;SDS011;44713;53.378;10.022;2022-07-22T13:37:08;3.85;;;1.20;;
58928;SDS011;44713;53.378;10.022;2022-07-22T13:39:33;4.05;;;1.40;;
58928;SDS011;44713;53.378;10.022;2022-07-22T13:41:59;7.03;;;2.08;;
58928;SDS011;44713;53.378;10.022;2022-07-22T13:44:24;6.15;;;1.70;;
58928;SDS011;44713;53.378;10.022;2022-07-22T13:46:49;5.07;;;1.30;;
58928;SDS011;44713;53.378;10.022;2022-07-22T13:49:15;6.40;;;1.33;;
58928;SDS011;44713;53.378;10.022;2022-07-22T13:51:40;5.25;;;1.40;;
58928;SDS011;44713;53.378;10.022;2022-07-22T13:54:06;6.30;;;1.48;;
58928;SDS011;44713;53.378;10.022;2022-07-22T13:56:32;5.55;;;1.20;;
58928;SDS011;44713;53.378;10.022;2022-07-22T13:58:58;5.95;;;1.55;;
58928;SDS011;44713;53.378;10.022;2022-07-22T14:01:24;4.32;;;1.50;;
58928;SDS011;44713;53.378;10.022;2022-07-22T14:03:50;6.28;;;1.38;;
58928;SDS011;44713;53.378;10.022;2022-07-22T14:06:15;3.13;;;1.02;;
58928;SDS011;44713;53.378;10.022;2022-07-22T14:08:41;3.42;;;1.50;;
58928;SDS011;44713;53.378;10.022;2022-07-22T14:11:06;3.83;;;1.30;;
58928;SDS011;44713;53.378;10.022;2022-07-22T14:13:32;4.00;;;1.27;;
58928;SDS011;44713;53.378;10.022;2022-07-22T14:15:57;3.63;;;1.30;;
58928;SDS011;44713;53.378;10.022;2022-07-22T14:18:43;3.30;;;1.25;;
58928;SDS011;44713;53.378;10.022;2022-07-22T14:21:08;5.75;;;1.23;;
58928;SDS011;44713;53.378;10.022;2022-07-22T14:23:33;7.18;;;1.77;;
58928;SDS011;44713;53.378;10.022;2022-07-22T14:25:59;6.22;;;1.60;;
58928;SDS011;44713;53.378;10.022;2022-07-22T14:28:24;6.25;;;1.40;;
58928;SDS011;44713;53.378;10.022;2022-07-22T14:30:50;6.18;;;1.40;;
58928;SDS011;44713;53.378;10.022;2022-07-22T14:33:15;5.93;;;1.17;;
58928;SDS011;44713;53.378;10.022;2022-07-22T14:35:40;4.90;;;1.35;;
58928;SDS011;44713;53.378;10.022;2022-07-22T14:38:06;4.28;;;1.73;;
58928;SDS011;44713;53.378;10.022;2022-07-22T14:40:31;4.57;;;1.15;;
58928;SDS011;44713;53.378;10.022;2022-07-22T14:42:56;5.95;;;1.95;;
58928;SDS011;44713;53.378;10.022;2022-07-22T14:45:22;5.78;;;1.38;;
58928;SDS011;44713;53.378;10.022;2022-07-22T14:47:47;4.40;;;1.17;;
58928;SDS011;44713;53.378;10.022;2022-07-22T14:50:12;6.07;;;1.08;;
58928;SDS011;44713;53.378;10.022;2022-07-22T14:52:38;3.35;;;1.02;;
58928;SDS011;44713;53.378;10.022;2022-07-22T14:55:03;7.45;;;1.30;;
58928;SDS011;44713;53.378;10.022;2022-07-22T14:57:29;8.82;;;1.55;;
58928;SDS011;44713;53.378;10.022;2022-07-22T14:59:54;4.05;;;0.95;;